createdAt,value
2023-08-18T00:01:22.054Z,6.87
2023-08-18T00:03:50.015Z,7.70
2023-08-18T00:06:19.295Z,7.10
2023-08-18T00:08:47.321Z,7.50
2023-08-18T00:11:15.858Z,7.33
2023-08-18T00:13:43.826Z,6.97
2023-08-18T00:16:12.210Z,7.13
2023-08-18T00:18:40.116Z,6.87
2023-08-18T00:21:08.316Z,6.47
2023-08-18T00:23:37.531Z,6.43
2023-08-18T00:26:07.095Z,7.40
2023-08-18T00:28:34.982Z,6.93
2023-08-18T00:31:03.278Z,7.33
2023-08-18T00:33:31.167Z,7.53
2023-08-18T00:35:59.157Z,6.47
2023-08-18T00:38:27.046Z,6.80
2023-08-18T00:40:56.937Z,6.87
2023-08-18T00:43:24.953Z,7.10
2023-08-18T00:45:55.278Z,6.50
2023-08-18T00:48:23.964Z,6.70
2023-08-18T00:50:52.910Z,6.77
2023-08-18T00:53:20.787Z,7.03
2023-08-18T00:55:50.296Z,6.27
2023-08-18T00:58:19.641Z,7.17
2023-08-18T01:00:49.686Z,7.00
2023-08-18T01:03:18.184Z,6.90
2023-08-18T01:05:45.966Z,6.60
2023-08-18T01:08:13.867Z,6.27
2023-08-18T01:10:52.027Z,6.03
2023-08-18T01:13:29.860Z,7.20
2023-08-18T01:16:00.457Z,6.53
2023-08-18T01:18:30.279Z,7.10
2023-08-18T01:21:02.293Z,6.50
2023-08-18T01:23:39.734Z,7.10
2023-08-18T01:26:07.717Z,6.60
2023-08-18T01:28:36.922Z,5.87
2023-08-18T01:31:09.985Z,6.57
2023-08-18T01:33:43.333Z,6.60
2023-08-18T01:36:24.476Z,6.90
2023-08-18T01:38:56.217Z,6.67
2023-08-18T01:41:26.771Z,6.30
2023-08-18T01:43:54.708Z,6.83
2023-08-18T01:46:22.930Z,6.47
2023-08-18T01:48:50.977Z,6.90
2023-08-18T01:51:19.774Z,6.50
2023-08-18T01:53:47.648Z,6.10
2023-08-18T01:56:16.935Z,6.00
2023-08-18T01:58:45.020Z,6.97
2023-08-18T02:01:14.006Z,7.00
2023-08-18T02:03:42.422Z,6.70
2023-08-18T02:06:12.190Z,6.90
2023-08-18T02:08:40.278Z,7.40
2023-08-18T02:11:08.629Z,6.70
2023-08-18T02:13:37.998Z,6.97
2023-08-18T02:16:06.149Z,6.67
2023-08-18T02:18:34.373Z,6.60
2023-08-18T02:21:03.656Z,6.70
2023-08-18T02:23:31.490Z,6.60
2023-08-18T02:26:05.045Z,6.50
2023-08-18T02:28:35.650Z,6.03
2023-08-18T02:31:06.621Z,6.63
2023-08-18T02:33:35.723Z,6.00
2023-08-18T02:36:03.967Z,6.60
2023-08-18T02:38:32.678Z,7.77
2023-08-18T02:41:00.753Z,6.70
2023-08-18T02:43:28.863Z,7.60
2023-08-18T02:45:57.665Z,6.00
2023-08-18T02:48:28.646Z,6.60
2023-08-18T02:51:03.893Z,6.40
2023-08-18T02:53:32.211Z,7.40
2023-08-18T02:56:00.638Z,6.13
2023-08-18T02:58:29.260Z,6.30
2023-08-18T03:00:57.624Z,7.27
2023-08-18T03:03:26.936Z,6.90
2023-08-18T03:05:54.961Z,6.57
2023-08-18T03:08:22.851Z,6.20
2023-08-18T03:10:58.169Z,7.37
2023-08-18T03:13:26.360Z,7.10
2023-08-18T03:15:54.456Z,6.47
2023-08-18T03:18:22.797Z,6.10
2023-08-18T03:20:52.580Z,6.37
2023-08-18T03:23:21.057Z,6.23
2023-08-18T03:25:48.976Z,6.73
2023-08-18T03:28:16.723Z,7.10
2023-08-18T03:30:44.629Z,6.27
2023-08-18T03:33:12.632Z,6.90
2023-08-18T03:35:40.538Z,6.47
2023-08-18T03:38:09.744Z,7.83
2023-08-18T03:40:37.584Z,5.93
2023-08-18T03:43:05.713Z,6.20
2023-08-18T03:45:34.943Z,6.33
2023-08-18T03:48:02.928Z,6.47
2023-08-18T03:50:30.810Z,6.67
2023-08-18T03:52:59.107Z,7.20
2023-08-18T03:55:28.404Z,6.50
2023-08-18T03:57:56.242Z,7.00
2023-08-18T04:00:24.141Z,7.50
2023-08-18T04:02:52.125Z,7.10
2023-08-18T04:05:19.972Z,7.70
2023-08-18T04:07:47.785Z,6.80
2023-08-18T04:10:15.847Z,6.70
2023-08-18T04:12:45.149Z,6.73
2023-08-18T04:15:13.015Z,6.87
2023-08-18T04:17:40.965Z,5.50
2023-08-18T04:20:10.901Z,5.87
2023-08-18T04:22:38.977Z,6.70
2023-08-18T04:25:08.467Z,6.27
2023-08-18T04:27:36.383Z,6.57
2023-08-18T04:30:07.557Z,6.20
2023-08-18T04:32:35.821Z,6.07
2023-08-18T04:35:04.254Z,6.33
2023-08-18T04:37:32.476Z,5.47
2023-08-18T04:40:00.410Z,6.20
2023-08-18T04:42:28.617Z,6.03
2023-08-18T04:44:56.896Z,6.20
2023-08-18T04:47:26.511Z,6.17
2023-08-18T04:49:54.739Z,7.10
2023-08-18T04:52:23.489Z,6.63
2023-08-18T04:54:52.809Z,6.10
2023-08-18T04:57:20.809Z,6.30
2023-08-18T04:59:48.762Z,6.10
2023-08-18T05:02:16.875Z,5.93
2023-08-18T05:04:46.468Z,6.20
2023-08-18T05:07:14.850Z,6.20
2023-08-18T05:09:42.641Z,6.17
2023-08-18T05:12:10.814Z,6.57
2023-08-18T05:14:38.969Z,5.30
2023-08-18T05:17:07.197Z,6.60
2023-08-18T05:19:35.237Z,5.93
2023-08-18T05:22:05.278Z,5.37
2023-08-18T05:24:33.072Z,5.60
2023-08-18T05:27:01.060Z,5.20
2023-08-18T05:29:29.804Z,6.47
2023-08-18T05:31:58.023Z,5.80
2023-08-18T05:34:26.065Z,5.93
2023-08-18T05:36:55.301Z,5.67
2023-08-18T05:39:24.725Z,5.73
2023-08-18T05:41:52.530Z,6.00
2023-08-18T05:44:20.325Z,5.50
2023-08-18T05:46:51.018Z,5.33
2023-08-18T05:49:18.797Z,6.10
2023-08-18T05:51:46.569Z,5.77
2023-08-18T05:54:14.373Z,5.67
2023-08-18T05:56:43.661Z,5.80
2023-08-18T05:59:11.790Z,5.90
2023-08-18T06:01:39.860Z,6.03
2023-08-18T06:04:08.051Z,4.77
2023-08-18T06:06:37.626Z,4.67
2023-08-18T06:09:08.376Z,5.03
2023-08-18T06:11:41.249Z,5.87
2023-08-18T06:14:10.590Z,5.40
2023-08-18T06:16:38.555Z,5.53
2023-08-18T06:19:12.111Z,5.67
2023-08-18T06:21:40.331Z,5.50
2023-08-18T06:24:09.830Z,5.70
2023-08-18T06:26:37.689Z,5.53
2023-08-18T06:29:05.442Z,5.30
2023-08-18T06:31:35.548Z,6.00
2023-08-18T06:34:03.416Z,5.90
2023-08-18T06:36:31.287Z,6.03
2023-08-18T06:39:00.078Z,5.90
2023-08-18T06:41:27.843Z,5.90
2023-08-18T06:43:55.972Z,6.50
2023-08-18T06:46:24.954Z,5.90
2023-08-18T06:48:57.245Z,6.37
2023-08-18T06:51:25.337Z,5.60
2023-08-18T06:53:53.208Z,6.30
2023-08-18T06:56:21.143Z,6.50
2023-08-18T06:58:49.556Z,5.70
2023-08-18T07:01:17.382Z,5.47
2023-08-18T07:03:45.593Z,6.37
2023-08-18T07:06:15.022Z,6.50
2023-08-18T07:08:42.862Z,5.70
2023-08-18T07:11:10.756Z,6.63
2023-08-18T07:13:38.623Z,5.90
2023-08-18T07:16:07.344Z,5.53
2023-08-18T07:18:35.285Z,6.70
2023-08-18T07:21:25.154Z,6.37
2023-08-18T07:23:54.571Z,5.90
2023-08-18T07:26:22.382Z,5.93
2023-08-18T07:28:50.250Z,5.87
2023-08-18T07:31:18.564Z,5.53
2023-08-18T07:33:46.698Z,3.73
2023-08-18T07:36:18.004Z,4.20
2023-08-18T07:38:46.047Z,4.90
2023-08-18T07:41:16.029Z,4.53
2023-08-18T07:43:43.976Z,4.40
2023-08-18T07:46:12.435Z,3.70
2023-08-18T07:48:40.312Z,4.80
2023-08-18T07:51:08.266Z,3.73
2023-08-18T07:53:36.036Z,3.13
2023-08-18T07:56:04.699Z,4.20
2023-08-18T07:58:34.625Z,3.40
2023-08-18T08:01:02.692Z,4.67
2023-08-18T08:03:31.129Z,3.40
2023-08-18T08:05:59.573Z,4.00
2023-08-18T08:08:27.632Z,3.50
2023-08-18T08:10:55.602Z,3.43
2023-08-18T08:13:23.458Z,2.90
2023-08-18T08:15:52.816Z,3.47
2023-08-18T08:18:20.797Z,3.10
2023-08-18T08:20:48.677Z,3.33
2023-08-18T08:23:17.148Z,2.70
2023-08-18T08:25:45.073Z,3.30
2023-08-18T08:28:12.870Z,3.13
2023-08-18T08:30:45.738Z,3.43
2023-08-18T08:33:17.101Z,2.97
2023-08-18T08:35:45.460Z,2.87
2023-08-18T08:38:13.569Z,2.50
2023-08-18T08:40:43.189Z,2.83
2023-08-18T08:43:12.013Z,2.83
2023-08-18T08:45:41.728Z,2.63
2023-08-18T08:48:13.022Z,2.33
2023-08-18T08:50:46.543Z,2.30
2023-08-18T08:53:20.358Z,2.80
2023-08-18T08:55:51.162Z,3.07
2023-08-18T08:58:20.224Z,2.80
2023-08-18T09:00:49.694Z,2.63
2023-08-18T09:03:17.682Z,2.60
2023-08-18T09:05:46.921Z,2.40
2023-08-18T09:08:15.198Z,3.20
2023-08-18T09:10:44.460Z,2.50
2023-08-18T09:13:12.266Z,2.57
2023-08-18T09:15:45.550Z,2.77
2023-08-18T09:18:13.676Z,2.30
2023-08-18T09:20:44.184Z,2.53
2023-08-18T09:23:14.397Z,2.47
2023-08-18T09:25:42.170Z,2.30
2023-08-18T09:30:43.375Z,2.83
2023-08-18T09:33:11.418Z,2.40
2023-08-18T09:35:39.315Z,2.37
2023-08-18T09:38:07.188Z,2.30
2023-08-18T09:40:36.292Z,2.17
2023-08-18T09:43:06.899Z,2.60
2023-08-18T09:45:41.442Z,2.43
2023-08-18T09:48:12.988Z,2.67
2023-08-18T09:50:41.872Z,2.37
2023-08-18T09:53:10.825Z,2.63
2023-08-18T09:55:45.654Z,2.03
2023-08-18T09:58:20.401Z,2.77
2023-08-18T10:00:55.918Z,2.57
2023-08-18T10:03:25.858Z,2.50
2023-08-18T10:05:54.926Z,2.30
2023-08-18T10:08:23.974Z,2.50
2023-08-18T10:10:53.419Z,2.40
2023-08-18T10:13:28.271Z,2.80
2023-08-18T10:15:57.243Z,2.60
2023-08-18T10:18:25.438Z,2.00
2023-08-18T10:20:55.110Z,2.40
2023-08-18T10:23:25.874Z,2.50
2023-08-18T10:25:55.398Z,2.20
2023-08-18T10:28:32.470Z,2.30
2023-08-18T10:31:02.153Z,3.13
2023-08-18T10:33:32.602Z,2.37
2023-08-18T10:36:04.092Z,2.67
2023-08-18T10:38:32.739Z,2.20
2023-08-18T10:41:02.168Z,2.30
2023-08-18T10:43:31.072Z,2.67
2023-08-18T10:46:01.029Z,2.20
2023-08-18T10:48:33.638Z,2.10
2023-08-18T10:51:02.240Z,2.47
2023-08-18T10:53:35.345Z,2.40
2023-08-18T10:56:06.129Z,2.27
2023-08-18T10:58:35.672Z,1.97
2023-08-18T11:01:04.683Z,2.20
2023-08-18T11:03:33.385Z,1.93
2023-08-18T11:06:02.245Z,1.97
2023-08-18T11:08:31.892Z,2.53
2023-08-18T11:10:59.772Z,2.10
2023-08-18T11:13:30.104Z,2.60
2023-08-18T11:15:58.779Z,2.60
2023-08-18T11:18:29.980Z,2.20
2023-08-18T11:20:58.415Z,1.90
2023-08-18T11:23:27.631Z,1.70
2023-08-18T11:25:56.798Z,1.73
2023-08-18T11:28:25.550Z,2.03
2023-08-18T11:30:57.834Z,1.70
2023-08-18T11:33:26.928Z,2.40
2023-08-18T11:35:56.398Z,2.33
2023-08-18T11:38:24.353Z,1.80
2023-08-18T11:40:54.412Z,2.20
2023-08-18T11:43:25.031Z,2.30
2023-08-18T11:45:53.529Z,1.93
2023-08-18T11:48:25.202Z,2.23
2023-08-18T11:50:57.795Z,2.00
2023-08-18T11:53:27.056Z,2.30
2023-08-18T11:55:55.305Z,2.07
2023-08-18T11:58:25.972Z,1.90
2023-08-18T12:00:53.936Z,2.43
2023-08-18T12:03:25.695Z,2.47
2023-08-18T12:05:55.461Z,1.90
2023-08-18T12:08:23.432Z,2.30
2023-08-18T12:10:54.120Z,2.40
2023-08-18T12:13:22.113Z,2.20
2023-08-18T12:15:51.324Z,2.50
2023-08-18T12:18:19.908Z,2.80
2023-08-18T12:20:49.332Z,2.30
2023-08-18T12:23:17.374Z,2.43
2023-08-18T12:25:45.212Z,2.70
2023-08-18T12:28:13.364Z,2.53
2023-08-18T12:30:41.231Z,2.87
2023-08-18T12:33:09.348Z,2.30
2023-08-18T12:35:37.461Z,2.13
2023-08-18T12:38:07.084Z,2.17
2023-08-18T12:40:35.081Z,2.27
2023-08-18T12:43:04.221Z,2.30
2023-08-18T12:45:32.299Z,2.50
2023-08-18T12:50:28.126Z,1.90
2023-08-18T12:52:56.041Z,2.50
2023-08-18T12:55:25.371Z,2.27
2023-08-18T12:57:53.370Z,2.70
2023-08-18T13:00:21.267Z,2.47
2023-08-18T13:02:49.913Z,3.13
2023-08-18T13:05:18.074Z,2.43
2023-08-18T13:07:45.965Z,2.30
2023-08-18T13:10:14.092Z,2.20
2023-08-18T13:12:43.320Z,2.50
2023-08-18T13:15:12.097Z,2.30
2023-08-18T13:17:40.462Z,2.17
2023-08-18T13:20:10.020Z,2.50
2023-08-18T13:22:39.146Z,2.53
2023-08-18T13:25:11.951Z,2.27
2023-08-18T13:27:40.389Z,2.77
2023-08-18T13:30:12.070Z,2.60
2023-08-18T13:32:41.351Z,2.30
2023-08-18T13:35:11.572Z,2.33
2023-08-18T13:37:40.229Z,2.40
2023-08-18T13:40:10.044Z,4.03
2023-08-18T13:42:38.250Z,2.80
2023-08-18T13:45:07.040Z,2.00
2023-08-18T13:47:36.702Z,2.70
2023-08-18T13:50:05.096Z,2.40
2023-08-18T13:52:33.744Z,2.30
2023-08-18T13:55:02.081Z,2.63
2023-08-18T13:57:30.045Z,2.57
2023-08-18T13:59:58.720Z,2.67
2023-08-18T14:02:27.192Z,2.43
2023-08-18T14:04:56.639Z,3.17
2023-08-18T14:07:24.912Z,2.80
2023-08-18T14:09:52.972Z,2.33
2023-08-18T14:12:21.039Z,2.70
2023-08-18T14:14:48.906Z,3.33
2023-08-18T14:17:35.713Z,2.47
2023-08-18T14:20:11.297Z,2.50
2023-08-18T14:22:39.256Z,2.80
2023-08-18T14:25:08.644Z,2.90
2023-08-18T14:27:36.665Z,3.10
2023-08-18T14:30:06.535Z,3.23
2023-08-18T14:32:35.273Z,2.63
2023-08-18T14:35:06.426Z,2.50
2023-08-18T14:37:34.499Z,2.27
2023-08-18T14:40:05.034Z,2.60
2023-08-18T14:42:33.378Z,2.43
2023-08-18T14:45:01.332Z,2.57
2023-08-18T14:47:30.221Z,2.37
2023-08-18T14:49:58.953Z,2.53
2023-08-18T14:52:29.158Z,2.37
2023-08-18T14:54:57.211Z,2.93
2023-08-18T14:57:25.534Z,2.33
2023-08-18T14:59:53.789Z,2.80
2023-08-18T15:02:22.240Z,2.53
2023-08-18T15:04:50.927Z,3.13
2023-08-18T15:07:19.205Z,2.90
2023-08-18T15:09:48.326Z,2.30
2023-08-18T15:12:16.361Z,2.77
2023-08-18T15:14:44.216Z,2.87
2023-08-18T15:17:12.212Z,2.93
2023-08-18T15:19:40.247Z,2.93
2023-08-18T15:22:08.397Z,2.90
2023-08-18T15:24:36.781Z,2.83
2023-08-18T15:27:06.432Z,2.53
2023-08-18T15:29:34.793Z,2.93
2023-08-18T15:32:03.169Z,2.50
2023-08-18T15:34:31.460Z,2.50
2023-08-18T15:37:01.163Z,2.87
2023-08-18T15:39:29.359Z,2.77
2023-08-18T15:41:57.322Z,2.90
2023-08-18T15:44:26.829Z,2.97
2023-08-18T15:46:54.712Z,3.50
2023-08-18T15:49:22.887Z,2.93
2023-08-18T15:51:50.760Z,3.37
2023-08-18T15:54:18.904Z,3.33
2023-08-18T15:56:46.709Z,3.10
2023-08-18T15:59:14.547Z,3.17
2023-08-18T16:01:43.742Z,2.87
2023-08-18T16:04:11.629Z,3.03
2023-08-18T16:06:41.843Z,2.40
2023-08-18T16:09:09.910Z,3.30
2023-08-18T16:11:37.692Z,3.50
2023-08-18T16:14:33.840Z,3.00
2023-08-18T16:16:57.062Z,3.13
2023-08-18T16:19:25.444Z,2.70
2023-08-18T16:21:53.420Z,3.83
2023-08-18T16:24:21.525Z,3.73
2023-08-18T16:26:51.176Z,4.00
2023-08-18T16:29:19.980Z,3.27
2023-08-18T16:31:47.866Z,3.00
2023-08-18T16:34:17.894Z,3.50
2023-08-18T16:36:45.769Z,3.80
2023-08-18T16:39:13.714Z,2.70
2023-08-18T16:41:41.595Z,2.80
2023-08-18T16:44:09.946Z,3.10
2023-08-18T16:46:37.898Z,3.73
2023-08-18T16:49:06.119Z,3.20
2023-08-18T16:51:36.024Z,3.20
2023-08-18T16:54:04.050Z,3.97
2023-08-18T16:56:31.816Z,3.20
2023-08-18T16:58:59.821Z,3.60
2023-08-18T17:01:27.680Z,2.70
2023-08-18T17:03:55.999Z,3.50
2023-08-18T17:06:23.974Z,3.27
2023-08-18T17:08:54.438Z,3.60
2023-08-18T17:11:22.416Z,3.80
2023-08-18T17:13:52.053Z,4.20
2023-08-18T17:16:20.187Z,3.57
2023-08-18T17:18:49.573Z,4.03
2023-08-18T17:21:18.469Z,5.53
2023-08-18T17:23:46.414Z,3.87
2023-08-18T17:26:15.979Z,3.77
2023-08-18T17:28:44.053Z,4.57
2023-08-18T17:31:13.481Z,3.73
2023-08-18T17:33:41.616Z,3.70
2023-08-18T17:36:11.958Z,3.77
2023-08-18T17:38:41.219Z,5.53
2023-08-18T17:41:09.265Z,6.80
2023-08-18T17:43:38.634Z,4.27
2023-08-18T17:46:06.636Z,5.40
2023-08-18T17:48:34.706Z,7.50
2023-08-18T17:51:05.303Z,6.03
2023-08-18T17:53:33.777Z,4.40
2023-08-18T17:56:01.740Z,5.50
2023-08-18T17:58:29.796Z,4.80
2023-08-18T18:01:00.561Z,7.77
2023-08-18T18:03:28.594Z,4.27
2023-08-18T18:05:56.649Z,4.63
2023-08-18T18:08:25.570Z,4.43
2023-08-18T18:10:53.441Z,4.83
2023-08-18T18:13:21.349Z,4.37
2023-08-18T18:15:49.429Z,4.53
2023-08-18T18:18:19.840Z,4.53
2023-08-18T18:20:47.949Z,3.47
2023-08-18T18:23:15.858Z,3.10
2023-08-18T18:25:43.836Z,4.10
2023-08-18T18:28:11.755Z,5.00
2023-08-18T18:30:39.685Z,3.80
2023-08-18T18:33:07.920Z,4.20
2023-08-18T18:35:37.641Z,3.53
2023-08-18T18:38:07.002Z,4.10
2023-08-18T18:40:35.197Z,4.03
2023-08-18T18:43:03.981Z,3.00
2023-08-18T18:45:32.993Z,3.80
2023-08-18T18:48:00.932Z,3.10
2023-08-18T18:50:29.510Z,4.53
2023-08-18T18:52:58.690Z,4.87
2023-08-18T18:55:26.481Z,4.60
2023-08-18T18:57:54.513Z,4.67
2023-08-18T19:00:22.286Z,4.10
2023-08-18T19:02:50.288Z,3.60
2023-08-18T19:05:18.436Z,4.23
2023-08-18T19:07:46.234Z,4.53
2023-08-18T19:10:15.599Z,3.20
2023-08-18T19:12:43.687Z,5.03
2023-08-18T19:15:12.169Z,4.60
2023-08-18T19:17:40.074Z,4.90
2023-08-18T19:20:25.533Z,4.20
2023-08-18T19:22:53.697Z,5.33
2023-08-18T19:25:23.102Z,5.47
2023-08-18T19:27:52.234Z,4.33
2023-08-18T19:30:20.732Z,4.23
2023-08-18T19:32:49.194Z,3.93
2023-08-18T19:35:17.435Z,4.20
2023-08-18T19:37:45.609Z,4.40
2023-08-18T19:40:14.124Z,4.40
2023-08-18T19:42:43.350Z,21.40
2023-08-18T19:45:11.997Z,4.30
2023-08-18T19:47:39.886Z,4.30
2023-08-18T19:50:08.691Z,5.20
2023-08-18T19:52:36.542Z,3.93
2023-08-18T19:55:04.442Z,4.20
2023-08-18T19:57:33.164Z,4.17
2023-08-18T20:00:07.075Z,3.87
2023-08-18T20:02:36.596Z,4.50
2023-08-18T20:05:05.589Z,4.73
2023-08-18T20:07:34.191Z,3.50
2023-08-18T20:10:02.458Z,3.77
2023-08-18T20:12:33.563Z,3.13
2023-08-18T20:15:05.742Z,3.53
2023-08-18T20:17:34.695Z,3.90
2023-08-18T20:20:04.724Z,3.50
2023-08-18T20:22:34.329Z,3.90
2023-08-18T20:25:02.582Z,3.17
2023-08-18T20:27:31.184Z,3.33
2023-08-18T20:30:02.549Z,3.70
2023-08-18T20:32:32.605Z,3.70
2023-08-18T20:35:00.870Z,3.37
2023-08-18T20:37:28.687Z,3.13
2023-08-18T20:39:57.297Z,3.07
2023-08-18T20:42:25.884Z,3.30
2023-08-18T20:44:53.750Z,3.73
2023-08-18T20:47:21.552Z,3.30
2023-08-18T20:49:51.030Z,3.50
2023-08-18T20:52:19.103Z,4.63
2023-08-18T20:54:46.872Z,4.10
2023-08-18T20:57:14.639Z,4.60
2023-08-18T20:59:42.548Z,4.77
2023-08-18T21:02:10.377Z,4.43
2023-08-18T21:04:38.646Z,4.17
2023-08-18T21:07:07.919Z,3.90
2023-08-18T21:09:35.915Z,4.50
2023-08-18T21:12:03.880Z,4.40
2023-08-18T21:14:31.772Z,4.60
2023-08-18T21:16:59.529Z,4.60
2023-08-18T21:19:27.316Z,4.27
2023-08-18T21:21:55.187Z,4.20
2023-08-18T21:24:24.790Z,4.37
2023-08-18T21:27:03.446Z,4.70
2023-08-18T21:29:31.431Z,4.47
2023-08-18T21:32:02.047Z,4.77
2023-08-18T21:34:29.897Z,4.70
2023-08-18T21:36:57.736Z,4.40
2023-08-18T21:39:27.093Z,4.77
2023-08-18T21:41:55.674Z,4.70
2023-08-18T21:44:23.757Z,4.30
2023-08-18T21:46:51.590Z,4.20
2023-08-18T21:49:19.374Z,4.50
2023-08-18T21:51:47.205Z,4.80
2023-08-18T21:54:16.037Z,3.93
2023-08-18T21:56:47.044Z,5.60
2023-08-18T21:59:14.937Z,4.50
2023-08-18T22:01:42.828Z,4.37
2023-08-18T22:04:10.614Z,4.60
2023-08-18T22:06:39.710Z,4.57
2023-08-18T22:09:07.604Z,4.00
2023-08-18T22:11:35.472Z,4.27
2023-08-18T22:14:05.164Z,5.00
2023-08-18T22:16:33.065Z,4.87
2023-08-18T22:19:00.857Z,5.00
2023-08-18T22:21:29.380Z,5.07
2023-08-18T22:23:57.515Z,5.03
2023-08-18T22:26:25.615Z,5.00
2023-08-18T22:28:53.491Z,5.07
2023-08-18T22:31:22.763Z,4.50
2023-08-18T22:33:50.558Z,4.77
2023-08-18T22:36:18.269Z,4.70
2023-08-18T22:38:46.125Z,4.10
2023-08-18T22:41:14.384Z,4.47
2023-08-18T22:43:42.705Z,4.73
2023-08-18T22:46:10.709Z,4.77
2023-08-18T22:48:40.053Z,3.93
2023-08-18T22:51:08.539Z,4.97
2023-08-18T22:53:37.426Z,4.80
2023-08-18T22:56:06.904Z,4.67
2023-08-18T22:58:34.865Z,4.43
2023-08-18T23:01:02.809Z,4.90
2023-08-18T23:03:31.484Z,4.70
2023-08-18T23:06:03.930Z,4.30
2023-08-18T23:08:32.828Z,4.63
2023-08-18T23:11:04.415Z,4.00
2023-08-18T23:13:32.463Z,4.30
2023-08-18T23:16:00.547Z,4.30
2023-08-18T23:18:28.362Z,5.13
2023-08-18T23:20:56.933Z,4.47
2023-08-18T23:23:26.398Z,3.90
2023-08-18T23:25:54.496Z,4.00
2023-08-18T23:28:22.546Z,4.40
2023-08-18T23:30:52.238Z,3.30
2023-08-18T23:33:20.982Z,4.30
2023-08-18T23:35:49.144Z,3.83
2023-08-18T23:38:18.913Z,3.83
2023-08-18T23:40:50.836Z,3.30
2023-08-18T23:43:20.645Z,4.73
2023-08-18T23:45:48.709Z,4.13
2023-08-18T23:48:17.345Z,4.30
2023-08-18T23:50:45.196Z,5.40
2023-08-18T23:53:13.162Z,4.03
2023-08-18T23:55:41.033Z,4.40
2023-08-18T23:58:10.225Z,4.37
